Time;durP1;ratioP1;P1;durP2;ratioP2;P2;SDS_P1;SDS_P2;PMS_P1;PMS_P2;Temp;Humidity;BMP_temperature;BMP_pressure;BME280_temperature;BME280_humidity;BME280_pressure;Samples;Min_cycle;Max_cycle;Signal;HPM_P1;HPM_P2
2021/06/06 00:05:16;;;;;;;1999.90;999.90;;;;;;;20.43;57.29;101409.69;15554520;28;20068;-65
2021/06/06 00:12:49;;;;;;;1999.90;999.90;;;;;;;20.57;57.32;101407.03;15553998;28;20046;-67
2021/06/06 00:20:21;;;;;;;;;;;;;;;20.28;58.48;101402.94;15535891;28;20046;-67
2021/06/06 00:27:53;;;;;;;1999.90;999.90;;;;;;;20.39;57.62;101405.94;15534785;28;19976;-66
2021/06/06 00:35:25;;;;;;;;;;;;;;;20.52;58.20;101412.22;15553448;28;20647;-65
2021/06/06 00:43:00;;;;;;;1999.90;999.90;;;;;;;20.16;58.63;101406.00;15553966;28;20349;-65
2021/06/06 00:50:39;;;;;;;1999.90;999.90;;;;;;;20.12;58.42;101414.47;15530242;28;20046;-65
2021/06/06 00:58:15;;;;;;;1999.90;999.90;;;;;;;19.73;59.10;101413.84;15698749;22;20041;-84
2021/06/06 01:05:53;;;;;;;1999.90;999.90;;;;;;;19.80;58.49;101411.13;15690256;28;20056;-84
2021/06/06 01:13:36;;;;;;;1999.90;999.90;;;;;;;19.81;58.50;101411.94;15727344;28;20105;-83
2021/06/06 01:21:21;;;;;;;1999.90;999.90;;;;;;;19.86;58.57;101425.78;15718801;28;20091;-84
2021/06/06 01:29:09;;;;;;;1999.90;999.90;;;;;;;19.45;58.68;101407.63;15706612;28;20056;-83
2021/06/06 01:36:46;;;;;;;1999.90;999.90;;;;;;;19.47;59.30;101417.38;15702122;28;20715;-83
2021/06/06 01:44:30;;;;;;;1999.90;999.90;;;;;;;19.13;60.07;101424.03;15680244;28;20056;-84
2021/06/06 01:52:07;;;;;;;1999.90;999.90;;;;;;;19.23;59.40;101423.41;15703854;28;20256;-82
2021/06/06 01:59:43;;;;;;;1999.90;999.90;;;;;;;19.04;60.26;101399.59;15707216;28;20068;-80
2021/06/06 02:07:18;;;;;;;1999.90;999.90;;;;;;;18.72;61.80;101407.44;15717274;28;20139;-83
2021/06/06 02:14:54;;;;;;;1999.90;999.90;;;;;;;18.57;62.87;101419.63;15710118;28;20067;-84
2021/06/06 02:22:33;;;;;;;1999.90;999.90;;;;;;;18.45;63.18;101417.75;15706134;28;20041;-84
2021/06/06 02:30:16;;;;;;;1999.90;999.90;;;;;;;18.43;63.36;101413.63;15682520;28;20075;-84
2021/06/06 02:37:57;;;;;;;1999.90;999.90;;;;;;;18.26;63.33;101423.38;15706661;28;20037;-83
2021/06/06 02:45:35;;;;;;;1999.90;999.90;;;;;;;18.05;64.23;101417.22;15676987;28;20055;-82
2021/06/06 02:53:21;;;;;;;1999.90;999.90;;;;;;;17.93;64.89;101415.34;15684243;28;20136;-82
2021/06/06 03:00:59;;;;;;;1999.90;999.90;;;;;;;17.84;65.77;101404.22;15663585;28;20048;-81
2021/06/06 03:08:32;;;;;;;1999.90;999.90;;;;;;;17.66;65.30;101391.63;15700796;28;20055;-82
2021/06/06 03:16:08;;;;;;;1999.90;999.90;;;;;;;17.74;65.58;101392.69;15682316;28;20049;-81
2021/06/06 03:23:54;;;;;;;1999.90;999.90;;;;;;;17.95;66.05;101420.59;15683655;28;20041;-81
2021/06/06 03:31:32;;;;;;;1999.90;999.90;;;;;;;17.75;66.60;101405.59;15700896;28;20127;-81
2021/06/06 03:39:10;;;;;;;1999.90;999.90;;;;;;;17.80;67.32;101408.94;15690220;28;20203;-81
2021/06/06 03:46:45;;;;;;;1999.90;999.90;;;;;;;17.93;65.93;101425.81;15714107;28;20105;-83
2021/06/06 03:54:18;;;;;;;1999.90;999.90;;;;;;;18.01;65.68;101425.59;15708411;28;20045;-82
2021/06/06 04:01:53;;;;;;;1999.90;999.90;;;;;;;18.18;66.18;101432.84;15707523;28;20033;-85
2021/06/06 04:09:26;;;;;;;1999.90;999.90;;;;;;;18.44;65.72;101427.44;15718690;28;20507;-84
2021/06/06 04:16:59;;;;;;;1999.90;999.90;;;;;;;18.35;66.65;101438.13;15715279;28;20107;-85
2021/06/06 04:24:34;;;;;;;1999.90;999.90;;;;;;;18.39;66.21;101439.00;15697729;28;20496;-85
2021/06/06 04:32:13;;;;;;;1999.90;999.90;;;;;;;18.90;65.82;101438.09;15697814;28;20053;-85
2021/06/06 04:39:49;;;;;;;1999.90;999.90;;;;;;;18.90;65.00;101452.25;15720019;28;20051;-81
2021/06/06 04:47:23;;;;;;;1999.90;999.90;;;;;;;19.17;65.96;101442.69;15731912;28;20059;-84
2021/06/06 04:54:59;;;;;;;1999.90;999.90;;;;;;;19.16;67.27;101452.38;15728426;28;20307;-84
2021/06/06 05:02:32;;;;;;;1999.90;999.90;;;;;;;19.59;67.18;101439.03;15741472;28;20037;-82
2021/06/06 05:10:08;;;;;;;1999.90;999.90;;;;;;;20.02;66.23;101446.28;15737851;28;20064;-82
2021/06/06 05:17:44;;;;;;;1999.90;999.90;;;;;;;20.11;66.71;101457.31;15739170;28;20112;-83
2021/06/06 05:25:17;;;;;;;1999.90;999.90;;;;;;;21.09;64.40;101464.00;15728318;28;20045;-83
2021/06/06 05:32:52;;;;;;;1999.90;999.90;;;;;;;21.88;62.51;101460.78;15669521;28;20044;-83
2021/06/06 05:40:26;;;;;;;1999.90;999.90;;;;;;;22.22;62.27;101464.34;15706480;28;20045;-82
2021/06/06 05:48:00;;;;;;;1999.90;999.90;;;;;;;22.76;60.79;101460.63;15723455;28;20096;-84
2021/06/06 05:55:32;;;;;;;1999.90;999.90;;;;;;;23.30;60.78;101472.25;15704727;28;20116;-82
2021/06/06 06:03:08;;;;;;;1999.90;999.90;;;;;;;23.53;59.56;101478.38;15720707;28;20059;-82
2021/06/06 06:10:40;;;;;;;1999.90;999.90;;;;;;;24.10;58.29;101477.66;15735607;28;20068;-82
2021/06/06 06:18:14;;;;;;;1999.90;999.90;;;;;;;23.58;59.45;101474.34;15736679;28;20045;-83
2021/06/06 06:25:47;;;;;;;1999.90;999.90;;;;;;;23.82;59.44;101487.84;15724219;28;20128;-81
2021/06/06 06:33:20;;;;;;;;;;;;;;;24.96;56.30;101501.97;15723390;28;20056;-83
2021/06/06 06:40:52;;;;;;;1999.90;999.90;;;;;;;24.76;57.14;101487.38;15721676;28;19921;-82
2021/06/06 06:48:27;;;;;;;1999.90;999.90;;;;;;;24.42;59.07;101492.75;15724387;28;20045;-83
2021/06/06 06:55:59;;;;;;;1999.90;999.90;;;;;;;26.12;54.38;101503.78;15719603;28;20552;-83
2021/06/06 07:03:33;;;;;;;1999.90;999.90;;;;;;;26.31;52.94;101506.09;15744399;28;20056;-82
2021/06/06 07:11:10;;;;;;;1999.90;999.90;;;;;;;26.37;53.85;101513.00;15725424;28;20048;-83
2021/06/06 07:18:43;;;;;;;1999.90;999.90;;;;;;;25.91;54.88;101499.06;15719185;28;20037;-82
2021/06/06 07:26:32;;;;;;;1999.90;999.90;;;;;;;26.45;53.05;101502.28;15697648;28;20049;-84
2021/06/06 07:34:05;;;;;;;1999.90;999.90;;;;;;;27.53;54.22;101502.69;15715660;28;20052;-83
2021/06/06 07:41:37;;;;;;;1999.90;999.90;;;;;;;28.73;50.60;101496.16;15720531;28;20113;-84
2021/06/06 07:49:10;;;;;;;1999.90;999.90;;;;;;;28.88;47.69;101508.22;15721088;28;20064;-82
2021/06/06 07:56:42;;;;;;;1999.90;999.90;;;;;;;30.67;47.96;101502.81;15692301;28;20057;-83
2021/06/06 08:04:15;;;;;;;1999.90;999.90;;;;;;;30.87;43.59;101500.59;15687735;28;20099;-83
2021/06/06 08:11:47;;;;;;;1999.90;999.90;;;;;;;31.26;42.79;101501.53;15711894;28;20037;-81
2021/06/06 08:19:23;;;;;;;1999.90;999.90;;;;;;;31.81;43.08;101513.88;15707238;28;20033;-85
2021/06/06 08:26:55;;;;;;;1999.90;999.90;;;;;;;32.16;40.31;101512.66;15700787;28;20144;-82
2021/06/06 08:34:30;;;;;;;1999.90;999.90;;;;;;;32.62;43.18;101509.47;15674592;28;20033;-84
2021/06/06 08:42:08;;;;;;;1999.90;999.90;;;;;;;33.54;37.61;101502.31;15676478;28;20075;-83
2021/06/06 08:49:46;;;;;;;1999.90;999.90;;;;;;;34.42;34.71;101508.63;15681004;28;20041;-84
2021/06/06 08:57:25;;;;;;;1999.90;999.90;;;;;;;33.94;29.16;101505.25;15724392;28;20214;-83
2021/06/06 09:05:01;;;;;;;1999.90;999.90;;;;;;;33.11;27.09;101521.28;15634512;28;20056;-83
2021/06/06 09:12:33;;;;;;;1999.90;999.90;;;;;;;32.91;27.91;101507.16;15670684;28;20072;-83
2021/06/06 09:20:21;;;;;;;1999.90;999.90;;;;;;;34.77;25.30;101512.00;15717520;28;20420;-83
2021/06/06 09:27:59;;;;;;;1999.90;999.90;;;;;;;34.19;25.75;101497.59;15700008;28;20041;-83
2021/06/06 09:35:35;;;;;;;1999.90;999.90;;;;;;;34.19;26.51;101504.19;15728003;28;20044;-81
2021/06/06 09:43:10;;;;;;;1999.90;999.90;;;;;;;34.07;23.59;101508.00;15725502;28;20045;-81
2021/06/06 09:50:48;;;;;;;1999.90;999.90;;;;;;;33.40;28.43;101494.19;15717586;28;20033;-83
2021/06/06 09:58:29;;;;;;;1999.90;999.90;;;;;;;33.81;26.45;101490.84;15690540;28;20131;-82
2021/06/06 10:06:23;;;;;;;1999.90;999.90;;;;;;;36.55;25.78;101503.38;15705026;28;20041;-83
2021/06/06 10:13:55;;;;;;;1999.90;999.90;;;;;;;35.13;25.71;101499.63;15702877;28;20045;-82
2021/06/06 10:21:32;;;;;;;1999.90;999.90;;;;;;;35.80;25.34;101489.75;15710239;28;20052;-83
2021/06/06 10:29:08;;;;;;;1999.90;999.90;;;;;;;35.30;24.02;101495.06;15725443;28;20040;-83
2021/06/06 10:36:41;;;;;;;1999.90;999.90;;;;;;;34.78;23.92;101487.53;15701241;28;20506;-85
2021/06/06 10:44:24;;;;;;;1999.90;999.90;;;;;;;35.89;21.76;101486.03;15705039;28;20038;-83
2021/06/06 10:52:00;;;;;;;1999.90;999.90;;;;;;;35.31;21.68;101492.97;15701966;28;20053;-84
2021/06/06 10:59:46;;;;;;;1999.90;999.90;;;;;;;37.58;21.09;101490.28;15718906;28;20045;-84
2021/06/06 11:07:47;;;;;;;1999.90;999.90;;;;;;;38.11;18.34;101490.09;15700385;28;20045;-84
2021/06/06 11:15:31;;;;;;;1999.90;999.90;;;;;;;37.66;20.33;101468.19;15725482;28;20040;-84
2021/06/06 11:23:14;;;;;;;1999.90;999.90;;;;;;;37.93;22.41;101472.88;15744340;28;20037;-83
2021/06/06 11:30:46;;;;;;;1999.90;999.90;;;;;;;34.86;22.58;101471.44;15738332;28;20052;-84
2021/06/06 11:38:44;;;;;;;1999.90;999.90;;;;;;;32.79;26.94;101458.88;15735288;28;20033;-82
2021/06/06 11:46:24;;;;;;;1999.90;999.90;;;;;;;34.70;23.59;101460.16;15743444;28;20053;-81
2021/06/06 11:54:02;;;;;;;1999.90;999.90;;;;;;;31.55;26.91;101450.34;15701770;28;20132;-82
2021/06/06 12:01:44;;;;;;;1999.90;999.90;;;;;;;34.13;27.32;101451.88;15684724;28;20044;-83
2021/06/06 12:09:20;;;;;;;1999.90;999.90;;;;;;;37.14;18.72;101436.63;15696397;28;20131;-82
2021/06/06 12:16:54;;;;;;;1999.90;999.90;;;;;;;38.31;19.77;101437.66;15706579;28;20041;-83
2021/06/06 12:24:28;;;;;;;1999.90;999.90;;;;;;;39.40;18.39;101439.94;15745045;28;20067;-84
2021/06/06 12:32:07;;;;;;;1999.90;999.90;;;;;;;38.15;21.18;101426.59;15718203;28;20041;-83
2021/06/06 12:39:43;;;;;;;1999.90;999.90;;;;;;;38.72;18.50;101420.16;15714623;28;20052;-83
2021/06/06 12:47:26;;;;;;;1999.90;999.90;;;;;;;38.88;18.19;101427.50;15700765;28;20295;-83
2021/06/06 12:55:11;;;;;;;1999.90;999.90;;;;;;;39.94;17.99;101415.88;15717200;28;20059;-82
2021/06/06 13:02:45;;;;;;;1999.90;999.90;;;;;;;39.41;17.49;101429.06;15701294;28;20052;-82
2021/06/06 13:10:27;;;;;;;1999.90;999.90;;;;;;;36.23;21.05;101417.88;15702561;28;20060;-82
2021/06/06 13:18:00;;;;;;;1999.90;999.90;;;;;;;33.92;21.71;101412.28;15703797;28;20079;-83
2021/06/06 13:25:42;;;;;;;1999.90;999.90;;;;;;;32.63;26.41;101410.78;15716248;28;20036;-82
2021/06/06 13:33:16;;;;;;;1999.90;999.90;;;;;;;32.07;26.64;101405.75;15716093;28;20049;-83
2021/06/06 13:40:51;;;;;;;1999.90;999.90;;;;;;;31.94;26.37;101407.06;15706606;28;20052;-82
2021/06/06 13:48:24;;;;;;;1999.90;999.90;;;;;;;32.58;26.82;101396.94;15710709;28;20048;-83
2021/06/06 13:55:58;;;;;;;1999.90;999.90;;;;;;;32.14;27.58;101393.97;15692757;28;20080;-83
2021/06/06 14:03:32;;;;;;;1999.90;999.90;;;;;;;32.05;28.21;101382.34;15697967;28;20041;-82
2021/06/06 14:11:11;;;;;;;1999.90;999.90;;;;;;;33.27;28.81;101388.06;15695404;28;20432;-83
2021/06/06 14:18:43;;;;;;;1999.90;999.90;;;;;;;33.41;25.58;101383.00;15712499;28;20045;-83
2021/06/06 14:26:17;;;;;;;1999.90;999.90;;;;;;;33.56;26.73;101384.03;15713033;28;20041;-82
2021/06/06 14:33:50;;;;;;;1999.90;999.90;;;;;;;33.20;24.67;101390.44;15712674;28;20080;-83
2021/06/06 14:41:25;;;;;;;1999.90;999.90;;;;;;;33.70;25.64;101379.72;15714795;28;20041;-82
2021/06/06 14:48:58;;;;;;;1999.90;999.90;;;;;;;32.76;26.08;101375.22;15710614;28;20044;-83
2021/06/06 14:56:38;;;;;;;1999.90;999.90;;;;;;;32.54;28.18;101383.91;15688876;22;20052;-66
2021/06/06 15:04:10;;;;;;;1999.90;999.90;;;;;;;32.99;24.97;101368.97;15555050;28;20073;-65
2021/06/06 15:11:43;;;;;;;1999.90;999.90;;;;;;;33.21;24.38;101360.25;15554675;28;20050;-66
2021/06/06 15:19:15;;;;;;;1999.90;999.90;;;;;;;32.99;23.63;101346.66;15633858;28;20041;-67
2021/06/06 15:26:48;;;;;;;1999.90;999.90;;;;;;;32.54;30.37;101350.06;15657611;28;20041;-66
2021/06/06 15:34:24;;;;;;;1999.90;999.90;;;;;;;31.39;34.03;101352.44;15675203;28;20107;-66
2021/06/06 15:41:57;;;;;;;1999.90;999.90;;;;;;;29.97;37.78;101348.00;15674664;28;20120;-66
2021/06/06 15:49:28;;;;;;;1999.90;999.90;;;;;;;30.45;39.35;101345.00;15674775;28;20107;-66
2021/06/06 15:57:02;;;;;;;;;;;;;;;30.13;40.02;101343.06;15611845;28;20045;-64
2021/06/06 16:04:33;;;;;;;1999.90;999.90;;;;;;;29.36;40.81;101343.78;15613647;28;20385;-67
2021/06/06 16:12:07;;;;;;;1999.90;999.90;;;;;;;29.54;41.37;101354.88;15595015;28;20383;-68
2021/06/06 16:19:39;;;;;;;1999.90;999.90;;;;;;;28.62;42.57;101361.44;15615159;28;20053;-65
2021/06/06 16:27:12;;;;;;;1999.90;999.90;;;;;;;28.28;41.98;101356.00;15593743;28;20041;-64
2021/06/06 16:34:44;;;;;;;1999.90;999.90;;;;;;;28.17;42.43;101350.44;15592012;28;20042;-65
2021/06/06 16:42:17;;;;;;;1999.90;999.90;;;;;;;27.98;42.55;101351.22;15619774;28;20080;-66
2021/06/06 16:49:50;;;;;;;1999.90;999.90;;;;;;;27.95;43.95;101348.41;15602279;28;20076;-63
2021/06/06 16:57:23;;;;;;;1999.90;999.90;;;;;;;27.63;44.48;101354.69;15598972;28;20049;-66
2021/06/06 17:04:55;;;;;;;1999.90;999.90;;;;;;;27.73;44.88;101362.34;15616919;28;20391;-65
2021/06/06 17:12:28;;;;;;;1999.90;999.90;;;;;;;27.43;45.30;101381.22;15614541;28;20049;-65
2021/06/06 17:19:59;;;;;;;1999.90;999.90;;;;;;;27.11;46.90;101380.91;15612249;28;20084;-65
2021/06/06 17:27:32;;;;;;;1999.90;999.90;;;;;;;27.04;46.33;101376.06;15619948;28;20112;-67
2021/06/06 17:35:06;;;;;;;1999.90;999.90;;;;;;;26.62;47.64;101374.56;15625438;28;20505;-66
2021/06/06 17:42:40;;;;;;;1999.90;999.90;;;;;;;26.50;47.73;101381.66;15613094;28;20045;-66
2021/06/06 17:50:16;;;;;;;1999.90;999.90;;;;;;;26.28;47.40;101381.06;15587465;28;20430;-67
2021/06/06 17:57:50;;;;;;;1999.90;999.90;;;;;;;25.81;48.78;101383.56;15602983;28;20041;-67
2021/06/06 18:05:24;;;;;;;1999.90;999.90;;;;;;;25.52;50.35;101397.25;15594367;28;20093;-67
2021/06/06 18:12:58;;;;;;;1999.90;999.90;;;;;;;25.21;51.78;101399.09;15604592;28;20033;-66
2021/06/06 18:20:31;;;;;;;1999.90;999.90;;;;;;;24.92;51.31;101404.13;15627671;28;20494;-67
2021/06/06 18:28:06;;;;;;;1999.90;999.90;;;;;;;24.99;51.24;101406.13;15612645;28;20049;-66
2021/06/06 18:44:16;;;;;;;1999.90;999.90;;;;;;;24.68;52.91;101419.31;15565326;28;20561;-68
2021/06/06 19:00:56;;;;;;;1999.90;999.90;;;;;;;24.62;53.02;101438.09;15599981;23;20457;-63
2021/06/06 19:08:29;;;;;;;1999.90;999.90;;;;;;;24.62;53.16;101458.06;15617260;28;20125;-63
2021/06/06 19:16:03;;;;;;;1999.90;999.90;;;;;;;24.62;53.20;101463.78;15603265;28;20042;-66
2021/06/06 19:23:41;;;;;;;1999.90;999.90;;;;;;;24.48;53.12;101464.59;15609811;28;20049;-63
2021/06/06 19:31:19;;;;;;;1999.90;999.90;;;;;;;24.46;53.36;101472.75;15630335;28;20046;-62
2021/06/06 19:38:53;;;;;;;1999.90;999.90;;;;;;;23.99;54.67;101486.22;15617910;28;20049;-63
2021/06/06 19:46:33;;;;;;;1999.90;999.90;;;;;;;23.89;54.85;101495.59;15615696;28;20049;-62
2021/06/06 19:54:08;;;;;;;1999.90;999.90;;;;;;;24.03;54.27;101506.97;15613481;28;20069;-61
2021/06/06 20:01:42;;;;;;;1999.90;999.90;;;;;;;23.67;55.63;101519.56;15613667;28;20038;-64
2021/06/06 20:09:14;;;;;;;1999.90;999.90;;;;;;;23.78;55.18;101520.41;15613957;28;20044;-63
2021/06/06 20:16:49;;;;;;;1999.90;999.90;;;;;;;23.73;54.64;101517.94;15587869;28;20062;-65
2021/06/06 20:24:27;;;;;;;1999.90;999.90;;;;;;;23.60;55.46;101514.66;15602716;28;20514;-63
2021/06/06 20:32:09;;;;;;;1999.90;999.90;;;;;;;23.50;55.71;101521.13;15606962;28;20037;-68
2021/06/06 20:39:45;;;;;;;1999.90;999.90;;;;;;;23.30;56.82;101524.31;15615254;28;20037;-64
2021/06/06 20:47:21;;;;;;;1999.90;999.90;;;;;;;23.15;57.80;101521.81;15619642;28;20505;-62
2021/06/06 20:55:05;;;;;;;1999.90;999.90;;;;;;;23.11;58.47;101529.50;15612737;28;20122;-68
2021/06/06 21:02:38;;;;;;;1999.90;999.90;;;;;;;22.88;59.03;101532.66;15633919;28;20240;-62
2021/06/06 21:10:11;;;;;;;1999.90;999.90;;;;;;;22.77;60.78;101539.06;15630997;28;20528;-62
2021/06/06 21:17:44;;;;;;;;;;;;;;;22.76;61.42;101525.22;15627415;28;20422;-65
2021/06/06 21:25:17;;;;;;;1999.90;999.90;;;;;;;22.60;61.86;101527.56;15626652;28;19929;-62
2021/06/06 21:32:50;;;;;;;1999.90;999.90;;;;;;;22.61;62.71;101534.88;15625703;28;20083;-61
2021/06/06 21:40:21;;;;;;;1999.90;999.90;;;;;;;22.44;63.25;101525.84;15624546;28;20092;-62
2021/06/06 21:47:54;;;;;;;1999.90;999.90;;;;;;;22.33;63.38;101539.16;15623800;28;20049;-64
2021/06/06 21:55:26;;;;;;;1999.90;999.90;;;;;;;22.10;64.41;101542.22;15624539;28;20144;-63
2021/06/06 22:02:59;;;;;;;1999.90;999.90;;;;;;;21.95;64.81;101540.41;15624200;28;20052;-64
2021/06/06 22:10:32;;;;;;;1999.90;999.90;;;;;;;21.85;65.74;101552.47;15622109;28;20049;-65
2021/06/06 22:18:26;;;;;;;1999.90;999.90;;;;;;;21.62;66.28;101549.81;15620874;28;20128;-65
2021/06/06 22:26:17;;;;;;;;;;;;;;;21.48;66.82;101556.16;15620881;28;20040;-66
2021/06/06 22:34:26;;;;;;;1999.90;999.90;;;;;;;21.31;66.81;101554.72;15635158;28;20000;-64
2021/06/06 22:42:35;;;;;;;1999.90;999.90;;;;;;;20.99;67.12;101564.81;15621022;28;20041;-64
2021/06/06 22:50:44;;;;;;;1999.90;999.90;;;;;;;20.83;67.57;101558.47;15621013;28;20099;-62
2021/06/06 22:58:53;;;;;;;1999.90;999.90;;;;;;;20.69;67.44;101571.25;15619802;28;20111;-63
2021/06/06 23:07:02;;;;;;;1999.90;999.90;;;;;;;20.57;67.03;101571.47;15616147;28;20046;-64
2021/06/06 23:14:35;;;;;;;1999.90;999.90;;;;;;;20.34;66.52;101568.66;15595998;28;20099;-64
2021/06/06 23:22:09;;;;;;;;;;;;;;;20.33;65.90;101571.88;15595982;28;20126;-62
2021/06/06 23:29:41;;;;;;;1999.90;999.90;;;;;;;20.15;64.00;101571.53;15612790;28;20382;-66
2021/06/06 23:37:14;;;;;;;1999.90;999.90;;;;;;;20.16;61.23;101559.84;15614935;28;20083;-64
2021/06/06 23:44:46;;;;;;;1999.90;999.90;;;;;;;20.08;58.14;101566.56;15597402;28;20041;-64
2021/06/06 23:52:22;;;;;;;1999.90;999.90;;;;;;;20.25;56.95;101561.59;15617076;28;20573;-63
2021/06/06 23:59:53;;;;;;;1999.90;999.90;;;;;;;20.24;55.49;101569.28;15615343;28;20037;-64
